"WATCHING THE WEATHER TO PROTECT LIFE AND PROPERTY"


Aviation
Satellite (InfraRed)


KFLL 170053Z 07008KT 10SM FEW035 BKN250 23/17 A3019 RMK AO2 SLP224 T02280167
KMCO 170053Z 04006KT 10SM FEW250 17/13 A3026 RMK AO2 SLP244 T01670128 $
KMIA 170053Z 05005KT 10SM FEW041 BKN250 23/16 A3020 RMK AO2 SLP227 T02280156
KTPA 170053Z 04004KT 10SM CLR 21/13 A3024 RMK AO2 SLP239 T02060128
MDPP 170000Z 00000KT 9999 FEW018 24/22 Q1019
MDSD 170100Z 04005KT 9999 FEW018 25/22 Q1018 NOSIG
MKJS 170100Z 12007KT 9999 FEW022 27/23 Q1016
MTPP 170100Z VRB02KT 8000 FEW024 25/21 Q1015 A2999
MUHA 170055Z 08007KT 9000 FEW025 23/21 Q1020
MYNN 170100Z 04007KT 9999 BKN040 BKN250 25/19 3019
TAPA 170100Z 07011KT 9999 FEW019 25/21 Q1016 NOSIG
TFFF 170100Z AUTO 08007KT 9999 FEW016 SCT030 BKN038 25/22 Q1015 NOSIG
TFFR 170100Z AUTO VRB02KT 9999 FEW041 BKN066 BKN080 25/21 Q1016 TEMPO 4000 SHRA SCT015TCU
TIST 170053Z AUTO 08009G18KT 10SM FEW033 26/22 A3006 RMK AO2 SLP179 T02610222
TISX 170053Z 07011KT 10SM CLR 26/21 A3006 RMK AO2 SLP177 T02560211
TJSJ 170056Z 08008KT 10SM -RA FEW018 SCT025 SCT031 26/24 A3008 RMK AO2 RAB40 SLP185 P0000 T02560244
TKPK 162200Z 04016KT 9999 FEW026 26/21 Q1016
TNCA 170100Z 08012KT 9999 FEW018 27/23 Q1013 NOSIG
TNCB 170055Z AUTO 07012KT 9999 NCD 27/23 Q1013
TNCC 170100Z 09012KT 9999 FEW017 27/23 Q1013 NOSIG
TNCE 170055Z AUTO 04016KT 010V070 //// // ///////// 26/22 Q1017 RE//
TNCM 170100Z 05014KT 9999 FEW020 26/21 Q1018 A3006
TQPF 162200Z 06009KT 9999 SCT019 25/20 Q1017
TUPJ 162300Z 10008KT 9999 SCT018 SCT042 26/22 Q1017 RMK A3005